John H. — WAC6768 — position and weather

sailwx.info

Track history (hours):
 
Tides and Currents Weather Stations Pressure Air Temp Water Temp Dewpoint Dewpoint Depression Visibility Wind Speed Wind Dir Waves Ship Positions

John H.

Owner: CROSS SOUND FERRY SERVICE INC, NEW LOUDON, CT. More information available from US FCC via Universal Licensing System and Coast Guard Vessel Documentation Center.

Last reported at 2014-Oct-21 01:33 UTC. Time now 2014-Oct-21 05:21 UTC.
Position N 41°21' W 072°06'.

Length 70 m.

Type: Passenger vessel. MMSI: 366934890.

Date/timePositionNaut miles runAvg speedWind from/ knotsBaromVisibWave heightAir tempDewpointWater temp
2014-Oct-21 01:33N 41°21' W 072°06'0 0.0
2014-Oct-21 00:33N 41°21' W 072°05'9 9.4
2014-Oct-20 23:33N 41°13' W 072°11'4 4.5
2014-Oct-20 22:33N 41°09' W 072°14'9 8.7
2014-Oct-20 21:33N 41°16' W 072°07'5 5.3
2014-Oct-20 20:33N 41°21' W 072°06'9 9.1
2014-Oct-20 19:33N 41°13' W 072°10'5 4.9
2014-Oct-20 18:33N 41°09' W 072°14'9 8.9
2014-Oct-20 17:33N 41°16' W 072°07'5 5.3
2014-Oct-20 16:33N 41°21' W 072°06'10 9.6
2014-Oct-20 15:33N 41°13' W 072°10'4 4.5
2014-Oct-20 14:33N 41°09' W 072°14'10 9.6
2014-Oct-20 13:33N 41°17' W 072°06'5 4.7
2014-Oct-20 12:33N 41°21' W 072°06'9 8.9
2014-Oct-20 11:33N 41°13' W 072°10'5 5.0
2014-Oct-20 10:33N 41°09' W 072°14'0 0.0
2014-Oct-20 02:33N 41°09' W 072°14'9 8.6
2014-Oct-20 01:33N 41°16' W 072°07'6 5.5
2014-Oct-20 00:33N 41°21' W 072°06'9 9.3
2014-Oct-19 23:33N 41°13' W 072°12'5 4.6
2014-Oct-19 22:34N 41°09' W 072°14'1110.7
2014-Oct-19 21:34N 41°18' W 072°06'4 3.7
2014-Oct-19 20:34N 41°21' W 072°06'10 9.6
2014-Oct-19 19:33N 41°13' W 072°12'4 4.2
2014-Oct-19 18:33N 41°09' W 072°14'9 9.1
2014-Oct-19 17:33N 41°16' W 072°07'5 5.1
2014-Oct-19 16:33N 41°21' W 072°05'10 9.6
2014-Oct-19 15:33N 41°13' W 072°11'4 4.4
2014-Oct-19 14:33N 41°09' W 072°14'9 9.3
2014-Oct-19 13:33N 41°16' W 072°07'5 5.0
2014-Oct-19 12:34N 41°21' W 072°06'9 8.6
2014-Oct-19 11:33N 41°13' W 072°10'5 5.3
2014-Oct-19 10:33N 41°09' W 072°14'0 0.0
2014-Oct-19 00:24N 41°09' W 072°14'910.1
2014-Oct-18 23:33N 41°16' W 072°07'6 5.5
2014-Oct-18 22:33N 41°21' W 072°06'9 9.0
2014-Oct-18 21:33N 41°13' W 072°10'5 4.9
2014-Oct-18 20:34N 41°09' W 072°14'8 8.1
2014-Oct-18 19:34N 41°16' W 072°08'6 5.9
2014-Oct-18 18:34N 41°21' W 072°06'10 9.8
2014-Oct-18 17:33N 41°13' W 072°13'4 4.1
2014-Oct-18 16:33N 41°09' W 072°14'9 9.4
2014-Oct-18 15:33N 41°17' W 072°07'5 4.8
2014-Oct-18 14:33N 41°21' W 072°06'8 8.4
2014-Oct-18 13:34N 41°14' W 072°10'6 5.5
2014-Oct-18 12:33N 41°09' W 072°14'8 8.4
2014-Oct-18 11:33N 41°16' W 072°08'6 5.6
2014-Oct-18 10:33N 41°21' W 072°06'0 0.0
2014-Oct-18 02:06N 41°21' W 072°06'5 9.0
2014-Oct-18 01:33N 41°16' W 072°06'10 9.6
2014-Oct-18 00:33N 41°09' W 072°14'9 8.8
2014-Oct-17 23:34N 41°16' W 072°07'5 5.4
2014-Oct-17 22:34N 41°21' W 072°06'9 9.3
2014-Oct-17 21:34N 41°13' W 072°11'5 4.6
2014-Oct-17 20:33N 41°09' W 072°14'8 8.3
2014-Oct-17 19:34N 41°16' W 072°08'6 5.7
2014-Oct-17 18:34N 41°21' W 072°06'9 8.6
2014-Oct-17 17:34N 41°13' W 072°09'5 5.5
2014-Oct-17 16:33N 41°09' W 072°14'9 8.7
2014-Oct-17 15:33N 41°16' W 072°07'5 5.4
2014-Oct-17 14:34N 41°21' W 072°06'9 8.8
2014-Oct-17 13:34N 41°13' W 072°10'5 5.1
2014-Oct-17 12:33N 41°09' W 072°14'9 9.3
2014-Oct-17 11:33N 41°17' W 072°07'5 4.9
2014-Oct-17 10:33N 41°21' W 072°06'0 0.0
2014-Oct-17 00:22N 41°21' W 072°06'810.1
2014-Oct-16 23:33N 41°14' W 072°09'6 5.8
2014-Oct-16 22:33N 41°09' W 072°14'9 9.1
2014-Oct-16 21:33N 41°16' W 072°07'5 5.1
2014-Oct-16 20:33N 41°21' W 072°06'9 9.1
2014-Oct-16 19:33N 41°13' W 072°11'5 4.8
2014-Oct-16 18:34N 41°09' W 072°14'9 9.1
2014-Oct-16 17:34N 41°16' W 072°07'5 5.1
2014-Oct-16 16:34N 41°21' W 072°06'9 9.1
2014-Oct-16 15:33N 41°13' W 072°11'4 3.8
2014-Oct-16 14:33N 41°10' W 072°13'1110.5
2014-Oct-16 13:34N 41°18' W 072°05'0 0.2
2014-Oct-16 12:34N 41°19' W 072°05'1211.8
2014-Oct-16 11:34N 41°09' W 072°14'0 0.0
2014-Oct-16 00:33N 41°09' W 072°14'9 9.0
2014-Oct-15 23:33N 41°16' W 072°07'5 5.2
2014-Oct-15 22:33N 41°21' W 072°06'9 9.0
2014-Oct-15 21:33N 41°13' W 072°10'5 4.9
2014-Oct-15 20:33N 41°09' W 072°14'10 9.9
2014-Oct-15 19:33N 41°17' W 072°06'4 4.4
2014-Oct-15 18:33N 41°21' W 072°06'9 9.3
2014-Oct-15 17:33N 41°13' W 072°11'5 4.6
2014-Oct-15 16:33N 41°09' W 072°14'9 8.5
2014-Oct-15 15:34N 41°16' W 072°08'6 5.5
2014-Oct-15 14:34N 41°21' W 072°06'9 9.2
2014-Oct-15 13:33N 41°13' W 072°11'5 4.7
2014-Oct-15 12:34N 41°09' W 072°14'9 9.4
2014-Oct-15 11:34N 41°17' W 072°07'5 4.8
2014-Oct-15 10:34N 41°21' W 072°06'0 0.0
2014-Oct-15 00:27N 41°21' W 072°06'8 9.5
2014-Oct-14 23:34N 41°13' W 072°10'6 5.6
2014-Oct-14 22:33N 41°09' W 072°14'10 9.7
2014-Oct-14 21:33N 41°17' W 072°06'5 4.6
2014-Oct-14 20:33N 41°21' W 072°06'9 8.7
2014-Oct-14 19:33N 41°13' W 072°10'5 5.3
2014-Oct-14 18:33N 41°09' W 072°14'10 9.5
2014-Oct-14 17:34N 41°17' W 072°07'5 4.7
2014-Oct-14 16:34N 41°21' W 072°06'9 9.2
2014-Oct-14 15:34N 41°13' W 072°10'5 4.8
2014-Oct-14 14:33N 41°09' W 072°14'9 9.5
2014-Oct-14 13:33N 41°17' W 072°07'5 4.8
2014-Oct-14 12:34N 41°21' W 072°06'9 8.5
2014-Oct-14 11:33N 41°13' W 072°10'5 5.4
2014-Oct-14 10:33N 41°09' W 072°14'0 0.0
2014-Oct-14 02:22N 41°09' W 072°14'6 6.9
2014-Oct-14 01:33N 41°13' W 072°09'8 8.4
2014-Oct-14 00:33N 41°21' W 072°06'9 8.6
2014-Oct-13 23:33N 41°13' W 072°10'5 5.4
2014-Oct-13 22:33N 41°09' W 072°14'10 9.6
2014-Oct-13 21:34N 41°17' W 072°06'5 4.6
2014-Oct-13 20:33N 41°21' W 072°06'9 9.2
2014-Oct-13 19:34N 41°13' W 072°11'5 4.7
2014-Oct-13 18:33N 41°09' W 072°14'1010.3
2014-Oct-13 17:33N 41°17' W 072°06'4 4.0
2014-Oct-13 16:33N 41°21' W 072°05'1010.3
2014-Oct-13 15:33N 41°12' W 072°12'4 3.5
2014-Oct-13 14:34N 41°09' W 072°14'10 9.9
2014-Oct-13 13:34N 41°17' W 072°06'4 4.4
2014-Oct-13 12:34N 41°21' W 072°06'9 8.9
2014-Oct-13 11:34N 41°13' W 072°10'5 5.0
2014-Oct-13 10:34N 41°09' W 072°14'0 0.0
2014-Oct-13 02:27N 41°09' W 072°14'6 6.6
2014-Oct-13 01:33N 41°14' W 072°10'8 7.9
2014-Oct-13 00:33N 41°21' W 072°06'9 8.9
2014-Oct-12 23:34N 41°13' W 072°10'5 5.1
2014-Oct-12 22:33N 41°09' W 072°14'10 9.7
2014-Oct-12 21:33N 41°17' W 072°06'5 4.5
2014-Oct-12 20:33N 41°21' W 072°06'9 9.3
2014-Oct-12 19:34N 41°13' W 072°11'5 4.6
2014-Oct-12 18:33N 41°09' W 072°14'8 8.4
2014-Oct-12 17:33N 41°16' W 072°07'6 5.8
2014-Oct-12 16:33N 41°21' W 072°06'9 8.9
2014-Oct-12 15:33N 41°13' W 072°10'5 5.0
2014-Oct-12 14:33N 41°09' W 072°14'9 8.5
2014-Oct-12 13:33N 41°16' W 072°08'6 5.6
2014-Oct-12 12:34N 41°21' W 072°06'8 8.3
2014-Oct-12 11:34N 41°14' W 072°09'6 5.8
2014-Oct-12 10:33N 41°09' W 072°14'0 0.0
2014-Oct-12 00:23N 41°09' W 072°14'8 9.5
2014-Oct-11 23:33N 41°15' W 072°08'6 6.2
2014-Oct-11 22:33N 41°21' W 072°06'9 8.8
2014-Oct-11 21:33N 41°13' W 072°10'5 5.2
2014-Oct-11 20:34N 41°09' W 072°14'8 8.3
2014-Oct-11 19:33N 41°16' W 072°08'6 5.8
2014-Oct-11 18:33N 41°21' W 072°06'1010.2
2014-Oct-11 17:33N 41°12' W 072°11'4 3.7
2014-Oct-11 16:34N 41°09' W 072°14'1010.4
2014-Oct-11 15:34N 41°17' W 072°06'4 3.9
2014-Oct-11 14:33N 41°21' W 072°06'9 9.3
2014-Oct-11 13:34N 41°13' W 072°11'5 4.6
2014-Oct-11 12:33N 41°09' W 072°14'8 8.2
2014-Oct-11 11:33N 41°16' W 072°08'6 5.8
2014-Oct-11 10:33N 41°21' W 072°06'0 0.0
2014-Oct-11 02:22N 41°21' W 072°06'7 9.0
2014-Oct-11 01:33N 41°14' W 072°09'  
Track history (hours):
 
Tides and Currents Weather Stations Pressure Air Temp Water Temp Dewpoint Dewpoint Depression Visibility Wind Speed Wind Dir Waves Ship Positions

John H.

Owner: CROSS SOUND FERRY SERVICE INC, NEW LOUDON, CT. More information available from US FCC via Universal Licensing System and Coast Guard Vessel Documentation Center.

Last reported at 2014-Oct-21 01:33 UTC. Time now 2014-Oct-21 05:21 UTC.
Position N 41°21' W 072°06'.

Length 70 m.

Type: Passenger vessel. MMSI: 366934890.

Date/timePositionNaut miles runAvg speedWind from/ knotsBaromVisibWave heightAir tempDewpointWater temp
2014-Oct-21 01:33N 41°21' W 072°06'0 0.0
2014-Oct-21 00:33N 41°21' W 072°05'9 9.4
2014-Oct-20 23:33N 41°13' W 072°11'4 4.5
2014-Oct-20 22:33N 41°09' W 072°14'9 8.7
2014-Oct-20 21:33N 41°16' W 072°07'5 5.3
2014-Oct-20 20:33N 41°21' W 072°06'9 9.1
2014-Oct-20 19:33N 41°13' W 072°10'5 4.9
2014-Oct-20 18:33N 41°09' W 072°14'9 8.9
2014-Oct-20 17:33N 41°16' W 072°07'5 5.3
2014-Oct-20 16:33N 41°21' W 072°06'10 9.6
2014-Oct-20 15:33N 41°13' W 072°10'4 4.5
2014-Oct-20 14:33N 41°09' W 072°14'10 9.6
2014-Oct-20 13:33N 41°17' W 072°06'5 4.7
2014-Oct-20 12:33N 41°21' W 072°06'9 8.9
2014-Oct-20 11:33N 41°13' W 072°10'5 5.0
2014-Oct-20 10:33N 41°09' W 072°14'0 0.0
2014-Oct-20 02:33N 41°09' W 072°14'9 8.6
2014-Oct-20 01:33N 41°16' W 072°07'6 5.5
2014-Oct-20 00:33N 41°21' W 072°06'9 9.3
2014-Oct-19 23:33N 41°13' W 072°12'5 4.6
2014-Oct-19 22:34N 41°09' W 072°14'1110.7
2014-Oct-19 21:34N 41°18' W 072°06'4 3.7
2014-Oct-19 20:34N 41°21' W 072°06'10 9.6
2014-Oct-19 19:33N 41°13' W 072°12'4 4.2
2014-Oct-19 18:33N 41°09' W 072°14'9 9.1
2014-Oct-19 17:33N 41°16' W 072°07'5 5.1
2014-Oct-19 16:33N 41°21' W 072°05'10 9.6
2014-Oct-19 15:33N 41°13' W 072°11'4 4.4
2014-Oct-19 14:33N 41°09' W 072°14'9 9.3
2014-Oct-19 13:33N 41°16' W 072°07'5 5.0
2014-Oct-19 12:34N 41°21' W 072°06'9 8.6
2014-Oct-19 11:33N 41°13' W 072°10'5 5.3
2014-Oct-19 10:33N 41°09' W 072°14'0 0.0
2014-Oct-19 00:24N 41°09' W 072°14'910.1
2014-Oct-18 23:33N 41°16' W 072°07'6 5.5
2014-Oct-18 22:33N 41°21' W 072°06'9 9.0
2014-Oct-18 21:33N 41°13' W 072°10'5 4.9
2014-Oct-18 20:34N 41°09' W 072°14'8 8.1
2014-Oct-18 19:34N 41°16' W 072°08'6 5.9
2014-Oct-18 18:34N 41°21' W 072°06'10 9.8
2014-Oct-18 17:33N 41°13' W 072°13'4 4.1
2014-Oct-18 16:33N 41°09' W 072°14'9 9.4
2014-Oct-18 15:33N 41°17' W 072°07'5 4.8
2014-Oct-18 14:33N 41°21' W 072°06'8 8.4
2014-Oct-18 13:34N 41°14' W 072°10'6 5.5
2014-Oct-18 12:33N 41°09' W 072°14'8 8.4
2014-Oct-18 11:33N 41°16' W 072°08'6 5.6
2014-Oct-18 10:33N 41°21' W 072°06'0 0.0
2014-Oct-18 02:06N 41°21' W 072°06'5 9.0
2014-Oct-18 01:33N 41°16' W 072°06'10 9.6
2014-Oct-18 00:33N 41°09' W 072°14'9 8.8
2014-Oct-17 23:34N 41°16' W 072°07'5 5.4
2014-Oct-17 22:34N 41°21' W 072°06'9 9.3
2014-Oct-17 21:34N 41°13' W 072°11'5 4.6
2014-Oct-17 20:33N 41°09' W 072°14'8 8.3
2014-Oct-17 19:34N 41°16' W 072°08'6 5.7
2014-Oct-17 18:34N 41°21' W 072°06'9 8.6
2014-Oct-17 17:34N 41°13' W 072°09'5 5.5
2014-Oct-17 16:33N 41°09' W 072°14'9 8.7
2014-Oct-17 15:33N 41°16' W 072°07'5 5.4
2014-Oct-17 14:34N 41°21' W 072°06'9 8.8
2014-Oct-17 13:34N 41°13' W 072°10'5 5.1
2014-Oct-17 12:33N 41°09' W 072°14'9 9.3
2014-Oct-17 11:33N 41°17' W 072°07'5 4.9
2014-Oct-17 10:33N 41°21' W 072°06'0 0.0
2014-Oct-17 00:22N 41°21' W 072°06'810.1
2014-Oct-16 23:33N 41°14' W 072°09'6 5.8
2014-Oct-16 22:33N 41°09' W 072°14'9 9.1
2014-Oct-16 21:33N 41°16' W 072°07'5 5.1
2014-Oct-16 20:33N 41°21' W 072°06'9 9.1
2014-Oct-16 19:33N 41°13' W 072°11'5 4.8
2014-Oct-16 18:34N 41°09' W 072°14'9 9.1
2014-Oct-16 17:34N 41°16' W 072°07'5 5.1
2014-Oct-16 16:34N 41°21' W 072°06'9 9.1
2014-Oct-16 15:33N 41°13' W 072°11'4 3.8
2014-Oct-16 14:33N 41°10' W 072°13'1110.5
2014-Oct-16 13:34N 41°18' W 072°05'0 0.2
2014-Oct-16 12:34N 41°19' W 072°05'1211.8
2014-Oct-16 11:34N 41°09' W 072°14'0 0.0
2014-Oct-16 00:33N 41°09' W 072°14'9 9.0
2014-Oct-15 23:33N 41°16' W 072°07'5 5.2
2014-Oct-15 22:33N 41°21' W 072°06'9 9.0
2014-Oct-15 21:33N 41°13' W 072°10'5 4.9
2014-Oct-15 20:33N 41°09' W 072°14'10 9.9
2014-Oct-15 19:33N 41°17' W 072°06'4 4.4
2014-Oct-15 18:33N 41°21' W 072°06'9 9.3
2014-Oct-15 17:33N 41°13' W 072°11'5 4.6
2014-Oct-15 16:33N 41°09' W 072°14'9 8.5
2014-Oct-15 15:34N 41°16' W 072°08'6 5.5
2014-Oct-15 14:34N 41°21' W 072°06'9 9.2
2014-Oct-15 13:33N 41°13' W 072°11'5 4.7
2014-Oct-15 12:34N 41°09' W 072°14'9 9.4
2014-Oct-15 11:34N 41°17' W 072°07'5 4.8
2014-Oct-15 10:34N 41°21' W 072°06'0 0.0
2014-Oct-15 00:27N 41°21' W 072°06'8 9.5
2014-Oct-14 23:34N 41°13' W 072°10'6 5.6
2014-Oct-14 22:33N 41°09' W 072°14'10 9.7
2014-Oct-14 21:33N 41°17' W 072°06'5 4.6
2014-Oct-14 20:33N 41°21' W 072°06'9 8.7
2014-Oct-14 19:33N 41°13' W 072°10'5 5.3
2014-Oct-14 18:33N 41°09' W 072°14'10 9.5
2014-Oct-14 17:34N 41°17' W 072°07'5 4.7
2014-Oct-14 16:34N 41°21' W 072°06'9 9.2
2014-Oct-14 15:34N 41°13' W 072°10'5 4.8
2014-Oct-14 14:33N 41°09' W 072°14'9 9.5
2014-Oct-14 13:33N 41°17' W 072°07'5 4.8
2014-Oct-14 12:34N 41°21' W 072°06'9 8.5
2014-Oct-14 11:33N 41°13' W 072°10'5 5.4
2014-Oct-14 10:33N 41°09' W 072°14'0 0.0
2014-Oct-14 02:22N 41°09' W 072°14'6 6.9
2014-Oct-14 01:33N 41°13' W 072°09'8 8.4
2014-Oct-14 00:33N 41°21' W 072°06'9 8.6
2014-Oct-13 23:33N 41°13' W 072°10'5 5.4
2014-Oct-13 22:33N 41°09' W 072°14'10 9.6
2014-Oct-13 21:34N 41°17' W 072°06'5 4.6
2014-Oct-13 20:33N 41°21' W 072°06'9 9.2
2014-Oct-13 19:34N 41°13' W 072°11'5 4.7
2014-Oct-13 18:33N 41°09' W 072°14'1010.3
2014-Oct-13 17:33N 41°17' W 072°06'4 4.0
2014-Oct-13 16:33N 41°21' W 072°05'1010.3
2014-Oct-13 15:33N 41°12' W 072°12'4 3.5
2014-Oct-13 14:34N 41°09' W 072°14'10 9.9
2014-Oct-13 13:34N 41°17' W 072°06'4 4.4
2014-Oct-13 12:34N 41°21' W 072°06'9 8.9
2014-Oct-13 11:34N 41°13' W 072°10'5 5.0
2014-Oct-13 10:34N 41°09' W 072°14'0 0.0
2014-Oct-13 02:27N 41°09' W 072°14'6 6.6
2014-Oct-13 01:33N 41°14' W 072°10'8 7.9
2014-Oct-13 00:33N 41°21' W 072°06'9 8.9
2014-Oct-12 23:34N 41°13' W 072°10'5 5.1
2014-Oct-12 22:33N 41°09' W 072°14'10 9.7
2014-Oct-12 21:33N 41°17' W 072°06'5 4.5
2014-Oct-12 20:33N 41°21' W 072°06'9 9.3
2014-Oct-12 19:34N 41°13' W 072°11'5 4.6
2014-Oct-12 18:33N 41°09' W 072°14'8 8.4
2014-Oct-12 17:33N 41°16' W 072°07'6 5.8
2014-Oct-12 16:33N 41°21' W 072°06'9 8.9
2014-Oct-12 15:33N 41°13' W 072°10'5 5.0
2014-Oct-12 14:33N 41°09' W 072°14'9 8.5
2014-Oct-12 13:33N 41°16' W 072°08'6 5.6
2014-Oct-12 12:34N 41°21' W 072°06'8 8.3
2014-Oct-12 11:34N 41°14' W 072°09'6 5.8
2014-Oct-12 10:33N 41°09' W 072°14'0 0.0
2014-Oct-12 00:23N 41°09' W 072°14'8 9.5
2014-Oct-11 23:33N 41°15' W 072°08'6 6.2
2014-Oct-11 22:33N 41°21' W 072°06'9 8.8
2014-Oct-11 21:33N 41°13' W 072°10'5 5.2
2014-Oct-11 20:34N 41°09' W 072°14'8 8.3
2014-Oct-11 19:33N 41°16' W 072°08'6 5.8
2014-Oct-11 18:33N 41°21' W 072°06'1010.2
2014-Oct-11 17:33N 41°12' W 072°11'4 3.7
2014-Oct-11 16:34N 41°09' W 072°14'1010.4
2014-Oct-11 15:34N 41°17' W 072°06'4 3.9
2014-Oct-11 14:33N 41°21' W 072°06'9 9.3
2014-Oct-11 13:34N 41°13' W 072°11'5 4.6
2014-Oct-11 12:33N 41°09' W 072°14'8 8.2
2014-Oct-11 11:33N 41°16' W 072°08'6 5.8
2014-Oct-11 10:33N 41°21' W 072°06'0 0.0
2014-Oct-11 02:22N 41°21' W 072°06'7 9.0
2014-Oct-11 01:33N 41°14' W 072°09'  

Dump ship's entire track history